Time;durP1;ratioP1;P1;durP2;ratioP2;P2;SDS_P1;SDS_P2;PMS_P1;PMS_P2;Temp;Humidity;BMP_temperature;BMP_pressure;BME280_temperature;BME280_humidity;BME280_pressure;Samples;Min_cycle;Max_cycle;Signal;HPM_P1;HPM_P2
2023/11/16 00:01:37;;;;;;;9.95;6.30;;;;;;;;;;6156113;23;20473;-87
2023/11/16 00:04:06;;;;;;;13.20;7.20;;;;;;;;;;6156412;22;20029;-86
2023/11/16 00:06:33;;;;;;;14.30;7.20;;;;;;;;;;6156412;23;20024;-86
2023/11/16 00:09:01;;;;;;;12.45;6.95;;;;;;;;;;6182123;23;20047;-86
2023/11/16 00:11:29;;;;;;;17.70;8.32;;;;;;;;;;6155734;23;20032;-85
2023/11/16 00:13:57;;;;;;;15.55;8.77;;;;;;;;;;6155567;23;20082;-88
2023/11/16 00:16:25;;;;;;;17.20;8.40;;;;;;;;;;6155945;23;20078;-87
2023/11/16 00:18:53;;;;;;;20.35;9.40;;;;;;;;;;6156343;23;20021;-87
2023/11/16 00:21:20;;;;;;;13.68;7.88;;;;;;;;;;6156396;23;20028;-87
2023/11/16 00:23:48;;;;;;;13.80;7.00;;;;;;;;;;6155678;23;20450;-86
2023/11/16 00:26:18;;;;;;;15.68;8.13;;;;;;;;;;6181551;23;20021;-86
2023/11/16 00:28:47;;;;;;;12.45;6.40;;;;;;;;;;6156548;23;20114;-86
2023/11/16 00:31:15;;;;;;;14.23;6.45;;;;;;;;;;6182241;23;20028;-86
2023/11/16 00:33:45;;;;;;;19.02;6.55;;;;;;;;;;6156286;23;20025;-86
2023/11/16 00:36:13;;;;;;;11.35;5.97;;;;;;;;;;6155716;23;20460;-86
2023/11/16 00:38:40;;;;;;;7.35;4.65;;;;;;;;;;6156055;23;20570;-86
2023/11/16 00:41:15;;;;;;;7.63;3.90;;;;;;;;;;6181887;23;20028;-86
2023/11/16 00:43:43;;;;;;;9.98;4.90;;;;;;;;;;6156230;23;20078;-86
2023/11/16 00:46:11;;;;;;;5.93;3.80;;;;;;;;;;6155476;23;20040;-86
2023/11/16 00:48:40;;;;;;;6.70;3.53;;;;;;;;;;6155827;23;20025;-86
2023/11/16 00:51:08;;;;;;;10.25;3.70;;;;;;;;;;6155402;23;20489;-86
2023/11/16 00:53:42;;;;;;;6.03;3.30;;;;;;;;;;6156065;23;20029;-87
2023/11/16 00:56:10;;;;;;;7.15;3.38;;;;;;;;;;6155753;23;20017;-86
2023/11/16 00:58:38;;;;;;;9.90;4.80;;;;;;;;;;6181843;23;20071;-87
2023/11/16 01:01:06;;;;;;;6.57;3.85;;;;;;;;;;6181682;23;20024;-86
2023/11/16 01:03:34;;;;;;;6.97;3.83;;;;;;;;;;6155773;23;20025;-86
2023/11/16 01:06:02;;;;;;;8.98;4.15;;;;;;;;;;6181952;23;20100;-86
2023/11/16 01:08:34;;;;;;;8.57;4.05;;;;;;;;;;6155844;23;20025;-86
2023/11/16 01:11:02;;;;;;;6.47;4.18;;;;;;;;;;6181974;23;20021;-86
2023/11/16 01:13:38;;;;;;;12.55;5.78;;;;;;;;;;6181675;23;20023;-87
2023/11/16 01:16:09;;;;;;;7.38;4.90;;;;;;;;;;6155947;23;20096;-86
2023/11/16 01:18:46;;;;;;;8.05;4.20;;;;;;;;;;6182056;23;20021;-86
2023/11/16 01:21:14;;;;;;;5.60;3.70;;;;;;;;;;6156174;23;20032;-86
2023/11/16 01:23:43;;;;;;;12.43;4.13;;;;;;;;;;6155798;23;20060;-87
2023/11/16 01:26:15;;;;;;;9.65;3.90;;;;;;;;;;6155062;23;20024;-86
2023/11/16 01:28:47;;;;;;;9.68;4.97;;;;;;;;;;6156065;23;20029;-86
2023/11/16 01:31:14;;;;;;;9.13;4.85;;;;;;;;;;6156165;23;20021;-86
2023/11/16 01:33:43;;;;;;;10.05;4.88;;;;;;;;;;6156038;23;20030;-87
2023/11/16 01:36:11;;;;;;;9.20;4.60;;;;;;;;;;6156104;23;20021;-86
2023/11/16 01:38:38;;;;;;;5.38;4.40;;;;;;;;;;6181748;23;20044;-86
2023/11/16 01:41:09;;;;;;;10.32;5.25;;;;;;;;;;6181537;23;20055;-87
2023/11/16 01:43:36;;;;;;;7.45;4.93;;;;;;;;;;6155924;23;20025;-86
2023/11/16 01:46:09;;;;;;;6.28;3.50;;;;;;;;;;6181318;23;20020;-87
2023/11/16 01:48:39;;;;;;;10.02;4.10;;;;;;;;;;6156103;23;20025;-87
2023/11/16 01:51:08;;;;;;;8.45;4.60;;;;;;;;;;6155523;23;20071;-86
2023/11/16 01:53:40;;;;;;;8.85;3.20;;;;;;;;;;6155151;23;20025;-86
2023/11/16 01:56:08;;;;;;;6.13;3.55;;;;;;;;;;6155807;23;20075;-87
2023/11/16 01:58:35;;;;;;;8.98;3.70;;;;;;;;;;6155312;23;20032;-86
2023/11/16 02:01:02;;;;;;;4.43;2.72;;;;;;;;;;6155771;23;20032;-86
2023/11/16 02:03:31;;;;;;;7.18;3.00;;;;;;;;;;6180936;23;20017;-86
2023/11/16 02:05:58;;;;;;;5.35;3.35;;;;;;;;;;6181268;23;20025;-87
2023/11/16 02:08:26;;;;;;;7.68;3.67;;;;;;;;;;6155354;23;20458;-87
2023/11/16 02:10:53;;;;;;;9.70;4.10;;;;;;;;;;6155848;23;20032;-87
2023/11/16 02:13:23;;;;;;;6.72;3.90;;;;;;;;;;6155207;23;20462;-86
2023/11/16 02:15:56;;;;;;;4.15;3.53;;;;;;;;;;6155912;23;20029;-87
2023/11/16 02:18:25;;;;;;;5.60;3.80;;;;;;;;;;6155145;22;20414;-87
2023/11/16 02:20:54;;;;;;;10.15;3.88;;;;;;;;;;6181191;23;20534;-87
2023/11/16 02:23:22;;;;;;;7.75;4.47;;;;;;;;;;6155046;22;20400;-86
2023/11/16 02:25:50;;;;;;;13.45;5.72;;;;;;;;;;6180848;23;20447;-86
2023/11/16 02:28:19;;;;;;;5.20;4.28;;;;;;;;;;6181507;23;20020;-87
2023/11/16 02:30:49;;;;;;;8.60;5.07;;;;;;;;;;6155544;23;20070;-87
2023/11/16 02:33:17;;;;;;;9.75;5.78;;;;;;;;;;6155135;23;20029;-86
2023/11/16 02:35:44;;;;;;;7.88;5.32;;;;;;;;;;6154775;23;20096;-86
2023/11/16 02:38:13;;;;;;;8.70;5.07;;;;;;;;;;6181190;23;20470;-87
2023/11/16 02:40:41;;;;;;;9.05;4.88;;;;;;;;;;6155709;23;20025;-87
2023/11/16 02:43:09;;;;;;;11.80;4.85;;;;;;;;;;6155341;23;20025;-86
2023/11/16 02:45:36;;;;;;;8.30;5.00;;;;;;;;;;6181090;23;20375;-87
2023/11/16 02:48:06;;;;;;;14.05;5.15;;;;;;;;;;6181396;23;20076;-86
2023/11/16 02:50:34;;;;;;;10.35;4.50;;;;;;;;;;6181417;23;20033;-86
2023/11/16 02:53:03;;;;;;;7.25;4.70;;;;;;;;;;6180935;23;20461;-87
2023/11/16 02:55:31;;;;;;;9.63;4.43;;;;;;;;;;6154847;23;20025;-86
2023/11/16 02:57:58;;;;;;;8.98;4.10;;;;;;;;;;6180705;23;20028;-87
2023/11/16 03:00:26;;;;;;;9.52;4.65;;;;;;;;;;6155472;23;20025;-86
2023/11/16 03:02:56;;;;;;;12.70;3.78;;;;;;;;;;6180916;23;20017;-86
2023/11/16 03:05:25;;;;;;;6.07;3.38;;;;;;;;;;6154730;23;20048;-87
2023/11/16 03:07:53;;;;;;;8.98;3.60;;;;;;;;;;6155002;23;20074;-87
2023/11/16 03:10:21;;;;;;;5.97;3.90;;;;;;;;;;6154883;23;20021;-87
2023/11/16 03:12:49;;;;;;;4.22;3.83;;;;;;;;;;6180705;23;20470;-87
2023/11/16 03:15:17;;;;;;;5.65;4.53;;;;;;;;;;6180557;23;20045;-87
2023/11/16 03:17:45;;;;;;;10.00;4.80;;;;;;;;;;6180250;23;20402;-87
2023/11/16 03:20:15;;;;;;;6.45;5.80;;;;;;;;;;6154841;23;20100;-87
2023/11/16 03:22:42;;;;;;;15.48;7.47;;;;;;;;;;6180647;23;20021;-86
2023/11/16 03:25:10;;;;;;;11.40;7.88;;;;;;;;;;6153883;23;20527;-87
2023/11/16 03:27:37;;;;;;;8.95;6.13;;;;;;;;;;6154645;23;20338;-86
2023/11/16 03:30:06;;;;;;;8.63;5.70;;;;;;;;;;6154132;23;20025;-86
2023/11/16 03:32:33;;;;;;;10.50;4.68;;;;;;;;;;6153886;22;20037;-87
2023/11/16 03:35:00;;;;;;;15.13;3.50;;;;;;;;;;6154325;23;20021;-86
2023/11/16 03:37:31;;;;;;;8.65;3.17;;;;;;;;;;6154523;23;20017;-85
2023/11/16 03:39:59;;;;;;;7.00;3.28;;;;;;;;;;6154308;23;20025;-85
2023/11/16 03:42:26;;;;;;;3.97;2.70;;;;;;;;;;6180090;23;20043;-86
2023/11/16 03:44:54;;;;;;;5.97;2.38;;;;;;;;;;6154115;23;20350;-85
2023/11/16 03:47:21;;;;;;;5.88;2.08;;;;;;;;;;6154229;23;20492;-85
2023/11/16 03:49:48;;;;;;;4.63;1.88;;;;;;;;;;6155473;23;20021;-86
2023/11/16 03:52:16;;;;;;;5.80;1.52;;;;;;;;;;6181040;23;20389;-86
2023/11/16 03:54:44;;;;;;;5.72;1.95;;;;;;;;;;6155789;23;20021;-86
2023/11/16 03:57:12;;;;;;;7.00;1.77;;;;;;;;;;6182180;23;20078;-86
2023/11/16 03:59:40;;;;;;;6.15;1.45;;;;;;;;;;6182659;23;20021;-86
2023/11/16 04:02:08;;;;;;;6.25;1.27;;;;;;;;;;6157552;23;20021;-86
2023/11/16 04:04:35;;;;;;;4.82;1.27;;;;;;;;;;6182060;23;20100;-86
2023/11/16 04:07:03;;;;;;;6.15;1.02;;;;;;;;;;6155706;23;20027;-86
2023/11/16 04:09:30;;;;;;;5.55;1.17;;;;;;;;;;6181835;23;20276;-84
2023/11/16 04:11:57;;;;;;;7.80;1.48;;;;;;;;;;6155817;23;20017;-86
2023/11/16 04:14:25;;;;;;;5.22;0.95;;;;;;;;;;6155195;23;20458;-86
2023/11/16 04:16:52;;;;;;;3.92;1.33;;;;;;;;;;6155924;23;20029;-87
2023/11/16 04:19:20;;;;;;;7.75;1.60;;;;;;;;;;6156203;23;20354;-86
2023/11/16 04:21:49;;;;;;;3.97;1.10;;;;;;;;;;6181330;23;20082;-86
2023/11/16 04:24:17;;;;;;;2.75;0.88;;;;;;;;;;6155203;23;20436;-85
2023/11/16 04:26:48;;;;;;;4.30;1.10;;;;;;;;;;6156129;23;20100;-86
2023/11/16 04:29:16;;;;;;;6.25;1.77;;;;;;;;;;6155971;23;20029;-84
2023/11/16 04:31:44;;;;;;;4.20;1.20;;;;;;;;;;6181614;23;20021;-85
2023/11/16 04:34:12;;;;;;;3.17;1.00;;;;;;;;;;6155139;22;20100;-87
2023/11/16 04:36:41;;;;;;;5.55;1.13;;;;;;;;;;6155221;23;20021;-86
2023/11/16 04:39:11;;;;;;;4.50;1.40;;;;;;;;;;6155596;23;20079;-86
2023/11/16 04:41:45;;;;;;;7.30;1.42;;;;;;;;;;6181980;23;20017;-87
2023/11/16 04:44:13;;;;;;;3.67;1.10;;;;;;;;;;6155425;23;20033;-86
2023/11/16 04:46:46;;;;;;;5.70;1.00;;;;;;;;;;6181721;23;20025;-86
2023/11/16 04:49:13;;;;;;;3.45;1.13;;;;;;;;;;6181031;23;20017;-86
2023/11/16 04:51:41;;;;;;;4.80;1.08;;;;;;;;;;6154986;23;20071;-86
2023/11/16 04:54:09;;;;;;;2.15;1.00;;;;;;;;;;6181087;23;20040;-87
2023/11/16 04:56:36;;;;;;;7.03;1.15;;;;;;;;;;6155646;23;20104;-86
2023/11/16 04:59:04;;;;;;;5.10;1.30;;;;;;;;;;6181543;23;20033;-86
2023/11/16 05:01:31;;;;;;;6.25;1.10;;;;;;;;;;6155805;23;20070;-87
2023/11/16 05:03:59;;;;;;;5.32;1.02;;;;;;;;;;6155000;23;20450;-85
2023/11/16 05:06:26;;;;;;;3.58;1.00;;;;;;;;;;6155379;23;20077;-87
2023/11/16 05:09:35;;;;;;;7.35;1.33;;;;;;;;;;6156426;23;20039;-86
2023/11/16 05:12:01;;;;;;;5.47;1.35;;;;;;;;;;6181289;23;20067;-87
2023/11/16 05:14:29;;;;;;;6.30;1.42;;;;;;;;;;6155447;23;20042;-86
2023/11/16 05:16:56;;;;;;;4.25;1.08;;;;;;;;;;6155445;23;20024;-87
2023/11/16 05:19:24;;;;;;;7.93;1.10;;;;;;;;;;6181007;23;20461;-86
2023/11/16 05:21:51;;;;;;;3.50;1.13;;;;;;;;;;6155583;23;20029;-86
2023/11/16 05:24:18;;;;;;;5.90;1.80;;;;;;;;;;6154958;23;20440;-87
2023/11/16 05:26:46;;;;;;;2.95;1.02;;;;;;;;;;6181653;23;20028;-87
2023/11/16 05:29:13;;;;;;;4.00;1.65;;;;;;;;;;6181575;23;20074;-86
2023/11/16 05:31:40;;;;;;;6.43;1.38;;;;;;;;;;6155629;23;20025;-86
2023/11/16 05:34:08;;;;;;;3.90;1.48;;;;;;;;;;6154716;23;20037;-86
2023/11/16 05:36:35;;;;;;;5.45;1.73;;;;;;;;;;6155058;23;20082;-86
2023/11/16 05:39:03;;;;;;;6.00;1.30;;;;;;;;;;6155396;22;20043;-86
2023/11/16 05:41:31;;;;;;;5.70;1.70;;;;;;;;;;6181706;23;20022;-86
2023/11/16 05:43:59;;;;;;;3.58;1.83;;;;;;;;;;6180992;23;20327;-86
2023/11/16 05:46:26;;;;;;;2.78;1.30;;;;;;;;;;6155587;23;20465;-87
2023/11/16 05:48:53;;;;;;;5.90;2.10;;;;;;;;;;6155784;23;20021;-86
2023/11/16 05:51:21;;;;;;;4.68;1.65;;;;;;;;;;6155653;23;20029;-86
2023/11/16 05:53:48;;;;;;;4.55;2.47;;;;;;;;;;6180965;23;20059;-86
2023/11/16 05:56:15;;;;;;;7.22;3.38;;;;;;;;;;6181353;23;20025;-86
2023/11/16 05:58:43;;;;;;;50.75;21.45;;;;;;;;;;6181347;23;20117;-86
2023/11/16 06:01:14;;;;;;;55.90;21.27;;;;;;;;;;6155509;23;20025;-86
2023/11/16 06:03:41;;;;;;;28.23;11.07;;;;;;;;;;6155786;23;20021;-86
2023/11/16 06:06:08;;;;;;;15.65;6.63;;;;;;;;;;6155754;23;20032;-86
2023/11/16 06:08:39;;;;;;;9.23;4.30;;;;;;;;;;6155574;23;20027;-86
2023/11/16 06:11:08;;;;;;;7.07;3.08;;;;;;;;;;6154936;22;20090;-86
2023/11/16 06:13:37;;;;;;;4.97;2.35;;;;;;;;;;6154496;22;20048;-86
2023/11/16 06:16:05;;;;;;;10.30;2.72;;;;;;;;;;6155383;23;20027;-86
2023/11/16 06:18:33;;;;;;;7.88;1.95;;;;;;;;;;6155698;23;20100;-86
2023/11/16 06:21:00;;;;;;;6.60;2.25;;;;;;;;;;6155856;23;20017;-86
2023/11/16 06:23:27;;;;;;;6.00;2.10;;;;;;;;;;6181688;23;20025;-86
2023/11/16 06:25:55;;;;;;;4.70;1.63;;;;;;;;;;6155572;23;20354;-86
2023/11/16 06:28:22;;;;;;;3.45;1.77;;;;;;;;;;6181162;23;20350;-85
2023/11/16 06:30:49;;;;;;;10.23;2.90;;;;;;;;;;6181442;23;20032;-86
2023/11/16 06:33:16;;;;;;;6.15;2.88;;;;;;;;;;6155893;23;20053;-86
2023/11/16 06:35:44;;;;;;;8.63;2.97;;;;;;;;;;6156054;23;20032;-86
2023/11/16 06:38:13;;;;;;;7.97;3.78;;;;;;;;;;6181784;23;20388;-86
2023/11/16 06:40:40;;;;;;;6.53;3.67;;;;;;;;;;6182199;23;20025;-86
2023/11/16 06:43:10;;;;;;;7.95;3.50;;;;;;;;;;6156123;23;20055;-86
2023/11/16 06:45:40;;;;;;;7.45;3.97;;;;;;;;;;6182345;23;20021;-86
2023/11/16 06:48:08;;;;;;;9.95;4.43;;;;;;;;;;6156603;23;20021;-86
2023/11/16 06:50:36;;;;;;;11.50;4.45;;;;;;;;;;6182401;23;20100;-86
2023/11/16 06:53:09;;;;;;;13.70;4.88;;;;;;;;;;6182065;23;20351;-85
2023/11/16 06:55:38;;;;;;;9.83;5.43;;;;;;;;;;6182161;23;20602;-85
2023/11/16 06:58:07;;;;;;;13.13;6.90;;;;;;;;;;6157297;23;20025;-86
2023/11/16 07:00:37;;;;;;;10.68;5.10;;;;;;;;;;6155279;23;20029;-86
2023/11/16 07:03:06;;;;;;;7.60;4.85;;;;;;;;;;6156342;23;20072;-86
2023/11/16 07:05:33;;;;;;;7.25;4.45;;;;;;;;;;6155821;23;20098;-86
2023/11/16 07:08:04;;;;;;;9.65;4.93;;;;;;;;;;6180873;23;20024;-86
2023/11/16 07:10:31;;;;;;;10.50;6.38;;;;;;;;;;6154523;23;20029;-86
2023/11/16 07:13:01;;;;;;;20.33;14.02;;;;;;;;;;6154591;23;20029;-86
2023/11/16 07:15:32;;;;;;;16.63;11.93;;;;;;;;;;6154850;23;20025;-86
2023/11/16 07:18:01;;;;;;;16.27;11.43;;;;;;;;;;6155014;23;20063;-86
2023/11/16 07:20:29;;;;;;;15.45;9.98;;;;;;;;;;6180743;23;20044;-86
2023/11/16 07:22:56;;;;;;;15.93;10.20;;;;;;;;;;6180605;23;20086;-86
2023/11/16 07:25:25;;;;;;;9.00;7.80;;;;;;;;;;6155783;23;20064;-86
2023/11/16 07:27:52;;;;;;;14.65;11.80;;;;;;;;;;6155763;23;20388;-86
2023/11/16 07:30:20;;;;;;;14.68;11.00;;;;;;;;;;6182047;23;20099;-86
2023/11/16 07:32:48;;;;;;;16.77;11.52;;;;;;;;;;6156481;23;20018;-86
2023/11/16 07:35:15;;;;;;;13.57;8.98;;;;;;;;;;6156190;23;20029;-86
2023/11/16 07:37:47;;;;;;;12.57;7.75;;;;;;;;;;6156385;23;20026;-86
2023/11/16 07:40:18;;;;;;;12.82;8.00;;;;;;;;;;6156299;23;20061;-86
2023/11/16 07:42:47;;;;;;;13.15;6.63;;;;;;;;;;6156389;23;20017;-86
2023/11/16 07:45:16;;;;;;;11.73;6.25;;;;;;;;;;6156162;23;20029;-86
2023/11/16 07:47:44;;;;;;;14.07;7.57;;;;;;;;;;6156198;23;20017;-86
2023/11/16 07:50:13;;;;;;;9.88;7.03;;;;;;;;;;6155521;23;20017;-86
2023/11/16 07:52:47;;;;;;;13.95;7.97;;;;;;;;;;6150439;23;20090;-86
2023/11/16 07:55:21;;;;;;;13.32;7.68;;;;;;;;;;6151111;23;20469;-85
2023/11/16 07:57:49;;;;;;;40.33;14.38;;;;;;;;;;6152505;23;20024;-86
2023/11/16 08:00:26;;;;;;;13.57;9.23;;;;;;;;;;6150705;23;20024;-87
2023/11/16 08:05:43;;;;;;;19.38;8.77;;;;;;;;;;6151963;23;20029;-87
2023/11/16 08:08:12;;;;;;;18.08;9.80;;;;;;;;;;6151349;23;20017;-86
2023/11/16 08:10:39;;;;;;;17.88;9.80;;;;;;;;;;6150395;23;20021;-86
2023/11/16 08:13:07;;;;;;;12.85;8.77;;;;;;;;;;6151169;23;20055;-87
2023/11/16 08:15:34;;;;;;;14.98;10.77;;;;;;;;;;6152109;23;20026;-86
2023/11/16 08:18:02;;;;;;;13.50;9.32;;;;;;;;;;6151106;23;20075;-86
2023/11/16 08:20:31;;;;;;;13.77;8.88;;;;;;;;;;6152204;23;20075;-86
2023/11/16 08:22:58;;;;;;;22.17;11.73;;;;;;;;;;6150551;23;20047;-87
2023/11/16 08:25:30;;;;;;;20.48;10.52;;;;;;;;;;6150754;23;20029;-87
2023/11/16 08:28:00;;;;;;;17.95;9.38;;;;;;;;;;6151207;23;20022;-87
2023/11/16 08:30:28;;;;;;;16.17;7.72;;;;;;;;;;6151437;23;20028;-86
2023/11/16 08:32:55;;;;;;;16.50;7.10;;;;;;;;;;6151156;23;20478;-86
2023/11/16 08:35:23;;;;;;;16.73;7.95;;;;;;;;;;6150815;23;20115;-86
2023/11/16 08:37:53;;;;;;;19.48;8.05;;;;;;;;;;6151123;23;20025;-87
2023/11/16 08:40:23;;;;;;;19.38;10.75;;;;;;;;;;6151184;23;20022;-87
2023/11/16 08:42:51;;;;;;;18.55;8.05;;;;;;;;;;6151026;23;20022;-87
2023/11/16 08:45:20;;;;;;;14.25;6.57;;;;;;;;;;6152131;23;20047;-86
2023/11/16 08:47:51;;;;;;;10.95;5.88;;;;;;;;;;6152310;23;20388;-86
2023/11/16 08:50:20;;;;;;;10.70;4.80;;;;;;;;;;6151249;23;20025;-86
2023/11/16 08:52:48;;;;;;;10.60;4.78;;;;;;;;;;6177870;23;20519;-86
2023/11/16 08:55:21;;;;;;;16.17;5.93;;;;;;;;;;6156109;23;20029;-86
2023/11/16 08:57:50;;;;;;;8.57;5.18;;;;;;;;;;6156501;23;20096;-86
2023/11/16 09:00:27;;;;;;;18.33;6.70;;;;;;;;;;6156292;23;20046;-87
2023/11/16 09:02:55;;;;;;;11.90;6.25;;;;;;;;;;6156324;23;20233;-87
2023/11/16 09:05:28;;;;;;;12.30;5.00;;;;;;;;;;6155546;23;20079;-87
2023/11/16 09:07:56;;;;;;;11.23;4.93;;;;;;;;;;6156377;23;20390;-87
2023/11/16 09:10:24;;;;;;;11.55;4.88;;;;;;;;;;6182100;23;20025;-86
2023/11/16 09:12:55;;;;;;;11.10;5.22;;;;;;;;;;6181896;23;20320;-87
2023/11/16 09:15:23;;;;;;;7.50;4.38;;;;;;;;;;6155672;23;20029;-87
2023/11/16 09:17:51;;;;;;;11.95;4.80;;;;;;;;;;6155872;23;20112;-86
2023/11/16 09:20:19;;;;;;;13.27;4.85;;;;;;;;;;6155820;23;20020;-86
2023/11/16 09:22:50;;;;;;;8.68;3.65;;;;;;;;;;6181999;23;20032;-86
2023/11/16 09:25:23;;;;;;;12.32;1.98;;;;;;;;;;6155344;23;20465;-87
2023/11/16 09:27:54;;;;;;;11.10;3.40;;;;;;;;;;6181911;23;20027;-86
2023/11/16 09:30:22;;;;;;;6.60;2.40;;;;;;;;;;6181796;23;20021;-86
2023/11/16 09:32:54;;;;;;;5.07;2.50;;;;;;;;;;6156034;23;20021;-87
2023/11/16 09:35:22;;;;;;;4.80;1.67;;;;;;;;;;6155715;23;20071;-86
2023/11/16 09:37:52;;;;;;;7.32;1.55;;;;;;;;;;6181501;23;20036;-86
2023/11/16 09:40:21;;;;;;;6.75;1.65;;;;;;;;;;6156048;23;20070;-86
2023/11/16 09:42:57;;;;;;;3.33;0.80;;;;;;;;;;6156202;23;20108;-86
2023/11/16 09:45:28;;;;;;;3.38;0.90;;;;;;;;;;6155054;23;20511;-86
2023/11/16 09:48:00;;;;;;;1.35;0.82;;;;;;;;;;6155948;23;20025;-86
2023/11/16 09:50:29;;;;;;;1.73;0.88;;;;;;;;;;6181728;23;20032;-86
2023/11/16 09:53:00;;;;;;;5.10;1.95;;;;;;;;;;6155294;23;20021;-87
2023/11/16 09:55:31;;;;;;;4.68;0.85;;;;;;;;;;6155538;23;20032;-87
2023/11/16 09:58:08;;;;;;;2.25;0.60;;;;;;;;;;6155884;23;20358;-87
2023/11/16 10:00:36;;;;;;;2.65;0.70;;;;;;;;;;6155498;23;20025;-87
2023/11/16 10:03:06;;;;;;;2.90;0.88;;;;;;;;;;6155915;23;20021;-87
2023/11/16 10:05:37;;;;;;;4.53;0.85;;;;;;;;;;6156179;23;20101;-86
2023/11/16 10:08:08;;;;;;;3.83;0.90;;;;;;;;;;6156180;23;20382;-87
2023/11/16 10:10:37;;;;;;;5.15;1.15;;;;;;;;;;6181507;23;20096;-87
2023/11/16 10:13:05;;;;;;;4.03;1.30;;;;;;;;;;6154929;23;20100;-86
2023/11/16 10:15:35;;;;;;;15.20;2.05;;;;;;;;;;6155097;23;20057;-87
2023/11/16 10:18:09;;;;;;;3.38;0.85;;;;;;;;;;6155456;23;20032;-86
2023/11/16 10:20:43;;;;;;;2.65;0.98;;;;;;;;;;6181176;23;20036;-86
2023/11/16 10:23:14;;;;;;;4.60;0.70;;;;;;;;;;6181024;23;20465;-87
2023/11/16 10:25:41;;;;;;;2.92;1.00;;;;;;;;;;6154748;23;20021;-86
2023/11/16 10:28:19;;;;;;;5.22;0.90;;;;;;;;;;6154906;23;20025;-85
2023/11/16 10:30:50;;;;;;;4.68;1.10;;;;;;;;;;6154784;23;20477;-87
2023/11/16 10:33:21;;;;;;;6.30;1.00;;;;;;;;;;6181315;23;20017;-86
2023/11/16 10:35:52;;;;;;;4.32;0.95;;;;;;;;;;6155350;23;20029;-86
2023/11/16 10:38:23;;;;;;;4.90;0.80;;;;;;;;;;6155417;23;20032;-87
2023/11/16 10:40:54;;;;;;;7.30;0.80;;;;;;;;;;6155092;23;20070;-86
2023/11/16 10:43:25;;;;;;;10.13;1.50;;;;;;;;;;6154932;23;20090;-86
2023/11/16 10:45:58;;;;;;;6.22;0.88;;;;;;;;;;6156293;23;20072;-87
2023/11/16 10:48:25;;;;;;;3.63;0.60;;;;;;;;;;6180946;23;20450;-87
2023/11/16 10:50:55;;;;;;;4.10;1.10;;;;;;;;;;6155112;23;20078;-88
2023/11/16 10:53:23;;;;;;;3.08;0.73;;;;;;;;;;6154580;23;20019;-87
2023/11/16 10:55:51;;;;;;;5.05;0.90;;;;;;;;;;6155267;23;20025;-87
2023/11/16 10:58:25;;;;;;;2.35;0.85;;;;;;;;;;6155710;23;20021;-86
2023/11/16 11:00:53;;;;;;;4.03;0.90;;;;;;;;;;6156823;23;20018;-87
2023/11/16 11:03:20;;;;;;;18.58;2.28;;;;;;;;;;6156223;23;20108;-86
2023/11/16 11:05:52;;;;;;;6.20;1.33;;;;;;;;;;6156276;23;20078;-87
2023/11/16 11:08:20;;;;;;;2.40;0.93;;;;;;;;;;6156470;23;20100;-87
2023/11/16 11:10:48;;;;;;;4.03;0.93;;;;;;;;;;6156510;23;20025;-87
2023/11/16 11:13:25;;;;;;;5.07;0.90;;;;;;;;;;6156450;23;20021;-87
2023/11/16 11:15:55;;;;;;;9.73;1.50;;;;;;;;;;6156410;23;20074;-87
2023/11/16 11:18:26;;;;;;;3.45;1.13;;;;;;;;;;6156236;23;20027;-87
2023/11/16 11:21:04;;;;;;;4.15;1.10;;;;;;;;;;6156144;23;20500;-86
2023/11/16 11:23:31;;;;;;;1.80;0.85;;;;;;;;;;6156490;23;20029;-87
2023/11/16 11:26:05;;;;;;;1.95;0.80;;;;;;;;;;6182019;23;20077;-87
2023/11/16 11:28:35;;;;;;;6.82;1.02;;;;;;;;;;6156279;23;20079;-87
2023/11/16 11:31:10;;;;;;;4.65;1.05;;;;;;;;;;6156176;23;20033;-86
2023/11/16 11:33:39;;;;;;;5.13;0.80;;;;;;;;;;6182084;23;20315;-87
2023/11/16 11:36:10;;;;;;;6.57;0.98;;;;;;;;;;6155961;23;20342;-87
2023/11/16 11:38:42;;;;;;;4.28;1.02;;;;;;;;;;6156434;23;20025;-86
2023/11/16 11:41:12;;;;;;;4.57;0.70;;;;;;;;;;6155858;23;20059;-87
2023/11/16 11:43:40;;;;;;;4.00;0.80;;;;;;;;;;6155942;23;20078;-87
2023/11/16 11:46:18;;;;;;;4.20;0.90;;;;;;;;;;6156340;23;20032;-88
2023/11/16 11:48:46;;;;;;;4.38;1.13;;;;;;;;;;6182273;23;20346;-87
2023/11/16 11:51:14;;;;;;;4.03;1.08;;;;;;;;;;6155963;23;20067;-87
2023/11/16 11:53:41;;;;;;;4.47;0.80;;;;;;;;;;6156074;23;20028;-87
2023/11/16 11:56:10;;;;;;;4.50;0.95;;;;;;;;;;6155653;23;20073;-87
2023/11/16 11:58:41;;;;;;;5.05;0.98;;;;;;;;;;6182040;23;20021;-87
2023/11/16 12:01:11;;;;;;;8.52;1.08;;;;;;;;;;6156420;23;20021;-87
2023/11/16 12:03:51;;;;;;;4.40;0.80;;;;;;;;;;6181791;23;20450;-87
2023/11/16 12:06:21;;;;;;;3.10;0.75;;;;;;;;;;6156547;23;20033;-87
2023/11/16 12:08:51;;;;;;;4.55;0.82;;;;;;;;;;6181122;23;20092;-87
2023/11/16 12:11:20;;;;;;;4.88;0.98;;;;;;;;;;6181804;23;20449;-87
2023/11/16 12:13:53;;;;;;;2.88;0.90;;;;;;;;;;6156161;23;20359;-87
2023/11/16 12:16:23;;;;;;;4.22;1.10;;;;;;;;;;6181962;23;20021;-86
2023/11/16 12:18:54;;;;;;;5.43;1.15;;;;;;;;;;6181932;23;20021;-87
2023/11/16 12:21:22;;;;;;;2.70;0.93;;;;;;;;;;6182033;23;20044;-87
2023/11/16 12:23:51;;;;;;;11.68;1.50;;;;;;;;;;6155938;23;20047;-87
2023/11/16 12:26:19;;;;;;;7.45;1.10;;;;;;;;;;6181234;23;20017;-87
2023/11/16 12:28:46;;;;;;;4.13;1.00;;;;;;;;;;6182006;23;20036;-86
2023/11/16 12:31:17;;;;;;;3.45;1.13;;;;;;;;;;6156052;23;20048;-87
2023/11/16 12:33:48;;;;;;;3.95;1.20;;;;;;;;;;6155675;23;20029;-87
2023/11/16 12:36:18;;;;;;;3.65;1.25;;;;;;;;;;6155799;22;20062;-87
2023/11/16 12:38:48;;;;;;;4.30;0.95;;;;;;;;;;6156245;23;20036;-87
2023/11/16 12:41:18;;;;;;;4.28;0.90;;;;;;;;;;6155899;23;20021;-87
2023/11/16 12:43:48;;;;;;;3.08;1.05;;;;;;;;;;6156442;23;20364;-87
2023/11/16 12:46:16;;;;;;;3.95;1.10;;;;;;;;;;6155572;23;20021;-87
2023/11/16 12:48:44;;;;;;;5.97;1.10;;;;;;;;;;6181913;23;20044;-87
2023/11/16 12:51:18;;;;;;;3.97;1.00;;;;;;;;;;6155192;22;20453;-87
2023/11/16 12:53:47;;;;;;;3.13;1.08;;;;;;;;;;6156111;23;20074;-87
2023/11/16 12:56:15;;;;;;;6.78;1.40;;;;;;;;;;6156287;23;20028;-88
2023/11/16 12:58:43;;;;;;;4.63;1.08;;;;;;;;;;6155922;22;20021;-87
2023/11/16 13:01:12;;;;;;;5.82;1.08;;;;;;;;;;6156008;23;20023;-88
2023/11/16 13:03:39;;;;;;;6.03;1.48;;;;;;;;;;6156866;23;20025;-87
2023/11/16 13:06:18;;;;;;;7.53;1.00;;;;;;;;;;6182994;23;20025;-87
2023/11/16 13:08:48;;;;;;;4.60;1.00;;;;;;;;;;6156638;22;20080;-86
2023/11/16 13:11:16;;;;;;;3.85;1.00;;;;;;;;;;6182301;23;20017;-87
2023/11/16 13:13:43;;;;;;;2.78;0.98;;;;;;;;;;6155917;23;20400;-87
2023/11/16 13:16:15;;;;;;;6.43;1.00;;;;;;;;;;6182086;23;20021;-87
2023/11/16 13:18:47;;;;;;;3.00;0.90;;;;;;;;;;6156205;23;20104;-87
2023/11/16 13:21:19;;;;;;;3.65;0.93;;;;;;;;;;6155539;23;20078;-87
2023/11/16 13:23:47;;;;;;;5.28;0.98;;;;;;;;;;6155942;23;20021;-86
2023/11/16 13:26:15;;;;;;;5.60;1.17;;;;;;;;;;6156234;23;20017;-87
2023/11/16 13:28:44;;;;;;;5.25;1.05;;;;;;;;;;6156419;23;20028;-87
2023/11/16 13:31:14;;;;;;;3.42;0.80;;;;;;;;;;6181748;23;20117;-87
2023/11/16 13:33:42;;;;;;;6.82;0.93;;;;;;;;;;6181642;23;20025;-87
2023/11/16 13:36:09;;;;;;;3.78;1.10;;;;;;;;;;6155939;23;20022;-87
2023/11/16 13:38:36;;;;;;;13.48;1.80;;;;;;;;;;6156030;23;20027;-87
2023/11/16 13:41:05;;;;;;;4.43;1.15;;;;;;;;;;6156342;23;20394;-87
2023/11/16 13:43:32;;;;;;;3.45;1.00;;;;;;;;;;6155661;23;20333;-87
2023/11/16 13:46:01;;;;;;;2.30;1.20;;;;;;;;;;6155534;23;20025;-86
2023/11/16 13:48:29;;;;;;;4.38;1.10;;;;;;;;;;6155567;23;20460;-87
2023/11/16 13:50:57;;;;;;;5.45;1.63;;;;;;;;;;6181796;23;20104;-87
2023/11/16 13:53:26;;;;;;;6.13;1.27;;;;;;;;;;6156041;23;20126;-87
2023/11/16 13:55:53;;;;;;;11.43;2.25;;;;;;;;;;6154838;23;20017;-87
2023/11/16 13:58:21;;;;;;;16.17;2.88;;;;;;;;;;6181622;23;20025;-87
2023/11/16 14:00:48;;;;;;;4.43;1.13;;;;;;;;;;6155440;23;20074;-86
2023/11/16 14:03:16;;;;;;;5.80;1.25;;;;;;;;;;6155750;23;20055;-87
2023/11/16 14:05:43;;;;;;;11.20;2.22;;;;;;;;;;6181733;23;20319;-87
2023/11/16 14:08:10;;;;;;;4.60;1.35;;;;;;;;;;6181792;23;20021;-88
2023/11/16 14:10:38;;;;;;;6.85;1.35;;;;;;;;;;6181661;23;20143;-87
2023/11/16 14:13:05;;;;;;;4.10;1.40;;;;;;;;;;6181587;23;20021;-87
2023/11/16 14:15:33;;;;;;;8.98;2.60;;;;;;;;;;6154863;23;20017;-88
2023/11/16 14:18:00;;;;;;;4.70;1.58;;;;;;;;;;6155649;23;20078;-87
2023/11/16 14:20:28;;;;;;;21.00;2.28;;;;;;;;;;6156003;23;20032;-88
2023/11/16 14:22:55;;;;;;;13.70;2.00;;;;;;;;;;6181228;23;20056;-88
2023/11/16 14:25:22;;;;;;;102.93;8.65;;;;;;;;;;6155173;23;20388;-87
2023/11/16 14:28:00;;;;;;;8.20;1.60;;;;;;;;;;6157614;23;20476;-87
2023/11/16 14:30:27;;;;;;;11.30;5.30;;;;;;;;;;6155654;23;20078;-88
2023/11/16 14:32:55;;;;;;;42.13;11.38;;;;;;;;;;6155308;23;20462;-87
2023/11/16 14:35:24;;;;;;;26.17;11.18;;;;;;;;;;6155402;23;20017;-87
2023/11/16 14:37:53;;;;;;;19.42;7.00;;;;;;;;;;6156046;23;20078;-87
2023/11/16 14:40:21;;;;;;;15.35;6.18;;;;;;;;;;6155533;23;20017;-87
2023/11/16 14:42:48;;;;;;;12.20;5.18;;;;;;;;;;6180945;23;20492;-87
2023/11/16 14:45:17;;;;;;;18.25;5.38;;;;;;;;;;6155337;23;20461;-87
2023/11/16 14:47:45;;;;;;;6.10;3.10;;;;;;;;;;6155361;23;20049;-88
2023/11/16 14:50:17;;;;;;;7.15;2.67;;;;;;;;;;6155460;23;20017;-88
2023/11/16 14:52:46;;;;;;;4.45;2.15;;;;;;;;;;6154794;23;20105;-88